Time;durP1;ratioP1;P1;durP2;ratioP2;P2;SDS_P1;SDS_P2;PMS_P1;PMS_P2;Temp;Humidity;BMP_temperature;BMP_pressure;BME280_temperature;BME280_humidity;BME280_pressure;Samples;Min_cycle;Max_cycle;Signal;HPM_P1;HPM_P2
2023/01/27 00:00:52;;;;;;;115.85;50.45;;;1.10;99.90;;;;;;4956440;29;20077;-81
2023/01/27 00:03:18;;;;;;;74.28;32.20;;;1.10;99.90;;;;;;4939284;29;20362;-82
2023/01/27 00:05:45;;;;;;;93.78;35.95;;;1.10;99.90;;;;;;4940383;29;20444;-80
2023/01/27 00:08:10;;;;;;;110.32;47.15;;;1.10;99.90;;;;;;4937647;29;20047;-80
2023/01/27 00:10:36;;;;;;;99.82;39.42;;;1.10;99.90;;;;;;4937161;29;20028;-80
2023/01/27 00:15:46;;;;;;;131.27;52.92;;;1.10;99.90;;;;;;4937319;29;20031;-81
2023/01/27 00:18:13;;;;;;;87.28;35.50;;;1.10;99.90;;;;;;4937121;29;20028;-81
2023/01/27 00:26:13;;;;;;;117.15;49.42;;;1.10;99.90;;;;;;4955499;29;20453;-82
2023/01/27 00:28:40;;;;;;;105.38;41.70;;;1.00;99.90;;;;;;4955689;29;20031;-80
2023/01/27 00:33:52;;;;;;;97.90;41.13;;;1.10;99.90;;;;;;4952007;29;20087;-80
2023/01/27 00:36:18;;;;;;;131.32;56.20;;;1.00;99.90;;;;;;4919626;29;20031;-81
2023/01/27 00:38:44;;;;;;;120.07;50.45;;;1.00;99.90;;;;;;4936768;29;20443;-80
2023/01/27 00:41:18;;;;;;;120.03;50.75;;;1.00;99.90;;;;;;4936952;29;20054;-81
2023/01/27 00:43:49;;;;;;;131.20;53.15;;;0.90;99.90;;;;;;4936845;29;20024;-81
2023/01/27 00:46:16;;;;;;;171.23;68.15;;;1.00;99.90;;;;;;4925503;29;20077;-81
2023/01/27 00:48:42;;;;;;;137.18;55.67;;;1.00;99.90;;;;;;4938710;29;20023;-82
2023/01/27 00:51:08;;;;;;;108.95;44.83;;;1.00;99.90;;;;;;4955713;29;20434;-81
2023/01/27 00:53:35;;;;;;;100.55;42.53;;;1.00;99.90;;;;;;4955776;29;20023;-81
2023/01/27 00:56:00;;;;;;;92.93;37.70;;;1.00;99.90;;;;;;4938187;29;20057;-82
2023/01/27 00:58:27;;;;;;;83.00;34.28;;;1.00;99.90;;;;;;4955973;29;20058;-80
2023/01/27 01:00:54;;;;;;;82.00;34.72;;;1.00;99.90;;;;;;4938634;29;20571;-81
2023/01/27 01:03:20;;;;;;;144.15;56.45;;;1.00;99.90;;;;;;4955739;29;20019;-80
2023/01/27 01:05:47;;;;;;;75.20;32.72;;;1.00;99.90;;;;;;4937960;29;20027;-81
2023/01/27 01:08:12;;;;;;;95.95;40.47;;;0.90;99.90;;;;;;4955194;29;20027;-83
2023/01/27 01:10:38;;;;;;;101.13;43.28;;;1.00;99.90;;;;;;4954576;29;20026;-81
2023/01/27 01:13:06;;;;;;;103.45;46.28;;;1.00;99.90;;;;;;4937705;29;20050;-79
2023/01/27 01:15:35;;;;;;;110.50;44.97;;;1.00;99.90;;;;;;4954990;29;20510;-80
2023/01/27 01:18:02;;;;;;;81.57;36.63;;;1.10;99.90;;;;;;4955457;29;20034;-83
2023/01/27 01:20:28;;;;;;;84.50;34.63;;;1.10;99.90;;;;;;4955112;29;20033;-81
2023/01/27 01:22:54;;;;;;;79.90;34.67;;;1.10;99.90;;;;;;4937832;29;20035;-80
2023/01/27 01:25:19;;;;;;;81.75;31.83;;;1.10;99.90;;;;;;4955677;29;20062;-80
2023/01/27 01:27:45;;;;;;;70.35;30.73;;;1.10;99.90;;;;;;4955081;29;20027;-81
2023/01/27 01:30:11;;;;;;;69.30;30.90;;;1.10;99.90;;;;;;4937985;29;20489;-81
2023/01/27 01:32:37;;;;;;;86.72;33.72;;;1.00;99.90;;;;;;4937835;29;20031;-81
2023/01/27 01:35:03;;;;;;;82.32;33.00;;;1.00;99.90;;;;;;4954336;29;20038;-80
2023/01/27 01:37:29;;;;;;;67.35;28.00;;;1.10;99.90;;;;;;4937516;29;20058;-82
2023/01/27 01:39:54;;;;;;;77.72;33.25;;;1.00;99.90;;;;;;4955038;29;20457;-83
2023/01/27 01:42:20;;;;;;;72.97;30.45;;;1.10;99.90;;;;;;4954588;29;20030;-79
2023/01/27 01:44:46;;;;;;;79.55;32.92;;;1.10;99.90;;;;;;4956702;28;20023;-80
2023/01/27 01:47:16;;;;;;;75.65;29.77;;;1.10;99.90;;;;;;4958767;29;20119;-82
2023/01/27 01:49:42;;;;;;;80.47;32.33;;;1.10;99.90;;;;;;4958419;29;20019;-81
2023/01/27 01:52:13;;;;;;;84.60;34.53;;;1.10;99.90;;;;;;4951657;29;20027;-80
2023/01/27 01:54:43;;;;;;;98.87;42.03;;;1.00;99.90;;;;;;4941033;29;20050;-80
2023/01/27 01:57:32;;;;;;;95.22;39.83;;;1.10;99.90;;;;;;4958199;29;20082;-81
2023/01/27 02:00:05;;;;;;;112.97;44.50;;;1.00;99.90;;;;;;4957983;29;20030;-81
2023/01/27 02:02:32;;;;;;;93.18;37.08;;;1.00;99.90;;;;;;4958319;29;20027;-80
2023/01/27 02:05:01;;;;;;;94.63;35.67;;;1.00;99.90;;;;;;4958077;29;20034;-80
2023/01/27 02:07:39;;;;;;;95.47;38.63;;;1.00;99.90;;;;;;4958029;29;20105;-80
2023/01/27 02:10:05;;;;;;;96.43;39.42;;;1.00;99.90;;;;;;4953985;29;20034;-81
2023/01/27 02:12:30;;;;;;;113.25;43.78;;;1.00;99.90;;;;;;4957593;29;20028;-80
2023/01/27 02:14:56;;;;;;;100.90;39.63;;;1.00;99.90;;;;;;4954114;29;20050;-80
2023/01/27 02:17:22;;;;;;;103.25;40.67;;;1.00;99.90;;;;;;4939369;29;20403;-79
2023/01/27 02:19:54;;;;;;;102.30;40.92;;;1.00;99.90;;;;;;4950053;29;20027;-80
2023/01/27 02:22:48;;;;;;;102.50;40.30;;;1.00;99.90;;;;;;4958657;29;20047;-80
2023/01/27 02:25:25;;;;;;;102.65;41.47;;;1.00;99.90;;;;;;4899245;29;20031;-80
2023/01/27 02:27:51;;;;;;;90.28;37.72;;;1.00;99.90;;;;;;4957829;29;20055;-81
2023/01/27 02:30:16;;;;;;;90.70;36.53;;;1.00;99.90;;;;;;4940391;29;20125;-81
2023/01/27 02:32:43;;;;;;;85.00;38.13;;;1.00;99.90;;;;;;4957445;29;20026;-82
2023/01/27 02:35:12;;;;;;;91.40;39.75;;;1.00;99.90;;;;;;4957924;29;20035;-81
2023/01/27 02:37:39;;;;;;;106.78;43.45;;;1.00;99.90;;;;;;4940105;28;20035;-80
2023/01/27 02:40:05;;;;;;;92.00;38.50;;;1.00;99.90;;;;;;4957458;29;20113;-80
2023/01/27 02:42:31;;;;;;;91.55;37.78;;;1.00;99.90;;;;;;4940345;29;20518;-78
2023/01/27 02:44:56;;;;;;;88.70;37.95;;;1.00;99.90;;;;;;4957397;29;20115;-81
2023/01/27 02:47:22;;;;;;;76.65;32.38;;;1.00;99.90;;;;;;4940169;29;20110;-80
2023/01/27 02:49:48;;;;;;;79.78;32.33;;;1.00;99.90;;;;;;4940364;29;20038;-80
2023/01/27 02:52:14;;;;;;;77.03;34.45;;;1.00;99.90;;;;;;4957424;29;20435;-80
2023/01/27 02:54:40;;;;;;;78.95;34.67;;;1.00;99.90;;;;;;4956993;28;20023;-79
2023/01/27 02:57:06;;;;;;;85.25;34.90;;;1.00;99.90;;;;;;4957208;29;20040;-81
2023/01/27 02:59:32;;;;;;;95.68;36.85;;;1.10;99.90;;;;;;4957269;29;20054;-79
2023/01/27 03:01:57;;;;;;;86.45;38.28;;;1.10;99.90;;;;;;4957078;29;20054;-79
2023/01/27 03:04:23;;;;;;;94.30;39.15;;;1.10;99.90;;;;;;4957277;29;20418;-80
2023/01/27 03:06:49;;;;;;;82.65;36.35;;;1.10;99.90;;;;;;4939919;29;20069;-80
2023/01/27 03:09:14;;;;;;;76.40;33.10;;;1.10;99.90;;;;;;4956839;29;20027;-81
2023/01/27 03:19:52;;;;;;;84.47;35.65;;;1.10;99.90;;;;;;4956639;29;20037;-80
2023/01/27 03:22:19;;;;;;;88.35;35.70;;;1.10;99.90;;;;;;4956760;29;20039;-79
2023/01/27 03:24:44;;;;;;;100.30;40.55;;;1.10;99.90;;;;;;4957180;29;20019;-79
2023/01/27 03:27:10;;;;;;;87.20;38.78;;;1.10;99.90;;;;;;4956524;29;20042;-80
2023/01/27 03:29:54;;;;;;;72.90;30.90;;;1.10;99.90;;;;;;4956375;29;20015;-79
2023/01/27 03:32:26;;;;;;;71.05;30.63;;;1.00;99.90;;;;;;4957196;29;20027;-79
2023/01/27 03:34:52;;;;;;;80.22;34.95;;;1.10;99.90;;;;;;4944408;29;20443;-79
2023/01/27 03:48:20;;;;;;;75.57;31.85;;;0.90;99.90;;;;;;4956634;29;20097;-78
2023/01/27 03:50:52;;;;;;;75.32;32.65;;;0.90;99.90;;;;;;4957248;29;20395;-79
2023/01/27 03:53:21;;;;;;;76.97;32.10;;;0.90;99.90;;;;;;4956742;29;20020;-81
2023/01/27 03:55:47;;;;;;;77.40;33.00;;;1.00;99.90;;;;;;4939614;29;20038;-79
2023/01/27 03:58:28;;;;;;;86.15;36.40;;;0.90;99.90;;;;;;4939478;29;20020;-78
2023/01/27 04:00:55;;;;;;;85.93;35.17;;;0.90;99.90;;;;;;4955899;29;20023;-79
2023/01/27 04:08:57;;;;;;;97.35;37.67;;;0.90;99.90;;;;;;4955708;29;20118;-80
2023/01/27 04:14:08;;;;;;;95.53;35.83;;;0.90;99.90;;;;;;4955327;29;20383;-79
2023/01/27 04:16:35;;;;;;;95.55;38.45;;;0.90;99.90;;;;;;4938414;29;20035;-78
2023/01/27 04:19:04;;;;;;;85.28;34.00;;;0.90;99.90;;;;;;4955542;29;20478;-79
2023/01/27 04:21:30;;;;;;;90.13;34.83;;;1.00;99.90;;;;;;4955451;29;20385;-78
2023/01/27 04:23:56;;;;;;;107.13;39.88;;;1.00;99.90;;;;;;4955731;29;20029;-78
2023/01/27 04:26:21;;;;;;;98.25;38.83;;;1.00;99.90;;;;;;4954715;29;20109;-77
2023/01/27 04:28:48;;;;;;;90.43;37.10;;;1.00;99.90;;;;;;4953569;29;20057;-78
2023/01/27 04:31:15;;;;;;;98.45;38.00;;;1.00;99.90;;;;;;4955619;29;20023;-78
2023/01/27 04:33:43;;;;;;;93.95;37.08;;;1.00;99.90;;;;;;4956081;29;20065;-78
2023/01/27 04:36:10;;;;;;;89.07;34.22;;;1.00;99.90;;;;;;4938494;29;20062;-79
2023/01/27 04:38:35;;;;;;;66.63;26.90;;;1.00;99.90;;;;;;4956079;28;20039;-78
2023/01/27 04:41:01;;;;;;;65.35;26.27;;;1.00;99.90;;;;;;4938523;29;20031;-78
2023/01/27 04:43:27;;;;;;;67.25;26.17;;;1.00;99.90;;;;;;4955856;29;20023;-79
2023/01/27 04:45:52;;;;;;;71.53;27.45;;;1.10;99.90;;;;;;4937674;29;20031;-78
2023/01/27 04:48:18;;;;;;;65.20;28.33;;;1.10;99.90;;;;;;4948744;29;20035;-76
2023/01/27 04:50:44;;;;;;;68.55;28.25;;;1.00;99.90;;;;;;4955062;29;20110;-78
2023/01/27 04:53:09;;;;;;;74.53;29.52;;;1.10;99.90;;;;;;4955773;29;20481;-77
2023/01/27 04:55:35;;;;;;;93.30;38.45;;;1.10;99.90;;;;;;4951426;29;20108;-77
2023/01/27 04:58:02;;;;;;;81.60;32.20;;;1.10;99.90;;;;;;4938067;29;20023;-78
2023/01/27 05:00:28;;;;;;;106.10;41.47;;;1.10;99.90;;;;;;4938297;29;20027;-78
2023/01/27 05:02:53;;;;;;;102.85;40.78;;;1.10;99.90;;;;;;4948633;29;20050;-78
2023/01/27 05:05:19;;;;;;;115.53;45.35;;;1.10;99.90;;;;;;4954431;29;20031;-78
2023/01/27 05:07:45;;;;;;;113.05;46.03;;;1.10;99.90;;;;;;4938505;29;20019;-78
2023/01/27 05:10:11;;;;;;;96.85;39.85;;;1.10;99.90;;;;;;4955246;29;20647;-77
2023/01/27 05:12:36;;;;;;;84.25;33.83;;;1.10;99.90;;;;;;4954893;29;20039;-77
2023/01/27 05:15:02;;;;;;;89.78;37.80;;;1.10;99.90;;;;;;4955265;29;20490;-78
2023/01/27 05:17:32;;;;;;;89.07;38.40;;;1.10;99.90;;;;;;4955335;29;20132;-79
2023/01/27 05:19:57;;;;;;;91.50;37.25;;;1.10;99.90;;;;;;4940995;29;20023;-79
2023/01/27 05:22:23;;;;;;;89.57;36.30;;;1.00;99.90;;;;;;4941974;29;20367;-78
2023/01/27 05:24:49;;;;;;;89.50;38.50;;;1.00;99.90;;;;;;4959026;29;20513;-79
2023/01/27 05:27:16;;;;;;;87.95;35.42;;;1.00;99.90;;;;;;4942175;29;20057;-77
2023/01/27 05:29:42;;;;;;;93.43;37.15;;;1.00;99.90;;;;;;4941915;29;20023;-77
2023/01/27 05:32:08;;;;;;;82.60;35.97;;;1.00;99.90;;;;;;4941959;29;20118;-78
2023/01/27 05:34:33;;;;;;;132.40;62.88;;;1.00;99.90;;;;;;4959480;29;20442;-77
2023/01/27 05:36:59;;;;;;;77.82;37.15;;;1.00;99.90;;;;;;4959149;28;20130;-77
2023/01/27 05:39:25;;;;;;;73.47;32.90;;;1.00;99.90;;;;;;4959011;29;20082;-76
2023/01/27 05:41:50;;;;;;;64.93;30.60;;;1.00;99.90;;;;;;4959104;29;20112;-76
2023/01/27 05:44:16;;;;;;;61.35;27.33;;;1.00;99.90;;;;;;4959122;29;20027;-77
2023/01/27 05:46:41;;;;;;;62.58;27.42;;;1.00;99.90;;;;;;4941823;29;20035;-77
2023/01/27 05:49:08;;;;;;;80.93;32.42;;;0.90;99.90;;;;;;4959506;29;20023;-77
2023/01/27 05:51:41;;;;;;;95.45;36.30;;;0.90;99.90;;;;;;4941887;29;20027;-78
2023/01/27 05:54:08;;;;;;;95.78;44.20;;;0.90;99.90;;;;;;4958703;29;20047;-76
2023/01/27 05:56:33;;;;;;;75.43;36.47;;;1.00;99.90;;;;;;4958636;29;20023;-76
2023/01/27 05:58:59;;;;;;;95.45;43.80;;;1.00;99.90;;;;;;4958795;29;20027;-77
2023/01/27 06:01:30;;;;;;;139.77;62.03;;;1.00;99.90;;;;;;4958838;29;20366;-75
2023/01/27 06:03:56;;;;;;;238.40;104.83;;;0.90;99.90;;;;;;4958732;29;20024;-77
2023/01/27 06:06:24;;;;;;;290.13;131.32;;;0.90;99.90;;;;;;4958426;29;20254;-75
2023/01/27 06:08:50;;;;;;;218.88;101.43;;;0.90;99.90;;;;;;4958622;29;20031;-78
2023/01/27 06:11:18;;;;;;;181.07;85.20;;;0.90;99.90;;;;;;4958447;29;20098;-76
2023/01/27 06:13:44;;;;;;;207.02;92.35;;;0.90;99.90;;;;;;4941076;29;20023;-76
2023/01/27 06:16:14;;;;;;;185.02;89.07;;;0.90;99.90;;;;;;4958648;29;20030;-76
2023/01/27 06:18:40;;;;;;;163.23;76.30;;;0.90;99.90;;;;;;4941330;29;20031;-75
2023/01/27 06:21:07;;;;;;;129.25;56.55;;;1.00;99.90;;;;;;4958127;29;20031;-76
2023/01/27 06:23:34;;;;;;;127.72;54.83;;;1.00;99.90;;;;;;4958697;29;20023;-78
2023/01/27 06:26:02;;;;;;;123.13;51.13;;;1.00;99.90;;;;;;4958524;29;20031;-77
2023/01/27 06:28:28;;;;;;;111.55;47.90;;;1.00;99.90;;;;;;4940784;29;20044;-76
2023/01/27 06:30:54;;;;;;;145.75;66.68;;;1.00;99.90;;;;;;4957739;28;20059;-75
2023/01/27 06:33:19;;;;;;;130.13;52.70;;;1.00;99.90;;;;;;4958071;29;20031;-77
2023/01/27 06:35:46;;;;;;;147.70;66.78;;;1.10;99.90;;;;;;4940809;29;20031;-77
2023/01/27 06:38:14;;;;;;;143.60;61.15;;;1.10;99.90;;;;;;4958014;28;20074;-77
2023/01/27 06:40:40;;;;;;;187.23;76.88;;;1.10;99.90;;;;;;4958203;29;20035;-77
2023/01/27 06:43:13;;;;;;;150.25;60.75;;;1.10;99.90;;;;;;4958057;29;20023;-76
2023/01/27 06:45:39;;;;;;;164.32;63.75;;;1.10;99.90;;;;;;4958123;29;20033;-75
2023/01/27 06:48:07;;;;;;;189.10;67.85;;;1.10;99.90;;;;;;4957872;29;20102;-75
2023/01/27 06:50:32;;;;;;;182.05;68.15;;;1.10;99.90;;;;;;4957897;29;20121;-76
2023/01/27 06:53:00;;;;;;;183.75;69.40;;;1.10;99.90;;;;;;4958001;29;20498;-76
2023/01/27 06:55:27;;;;;;;179.48;71.97;;;1.10;99.90;;;;;;4957591;29;20032;-75
2023/01/27 06:57:52;;;;;;;149.05;59.13;;;1.20;99.90;;;;;;4940788;29;20028;-78
2023/01/27 07:00:18;;;;;;;126.90;50.47;;;1.10;99.90;;;;;;4957899;29;20070;-79
2023/01/27 07:02:44;;;;;;;161.10;66.00;;;1.10;99.90;;;;;;4957815;29;20106;-76
2023/01/27 07:05:10;;;;;;;323.02;110.47;;;1.10;99.90;;;;;;4958110;29;20103;-75
2023/01/27 07:07:37;;;;;;;197.20;76.13;;;1.10;99.90;;;;;;4957812;29;20027;-75
2023/01/27 07:10:04;;;;;;;195.82;73.10;;;1.20;99.90;;;;;;4957546;29;20015;-75
2023/01/27 07:12:31;;;;;;;211.23;93.78;;;1.10;99.90;;;;;;4957946;29;20027;-75
2023/01/27 07:14:56;;;;;;;355.95;177.57;;;1.20;99.90;;;;;;4957529;29;20055;-76
2023/01/27 07:17:22;;;;;;;192.27;89.15;;;1.20;99.90;;;;;;4957827;29;20073;-77
2023/01/27 07:19:48;;;;;;;259.52;125.13;;;1.20;99.90;;;;;;4957392;29;20027;-75
2023/01/27 07:22:13;;;;;;;258.73;117.78;;;1.30;99.90;;;;;;4957119;29;20027;-77
2023/01/27 07:24:39;;;;;;;204.45;91.47;;;1.30;99.90;;;;;;4940137;29;20454;-77
2023/01/27 07:27:05;;;;;;;180.23;75.65;;;1.30;99.90;;;;;;4932928;29;20028;-77
2023/01/27 07:29:30;;;;;;;210.63;93.15;;;1.30;99.90;;;;;;4921172;29;20031;-76
2023/01/27 07:31:56;;;;;;;223.98;92.43;;;1.30;99.90;;;;;;4938053;29;20020;-77
2023/01/27 07:34:22;;;;;;;277.25;117.57;;;1.40;99.90;;;;;;4938180;29;20129;-75
2023/01/27 07:36:47;;;;;;;214.80;89.25;;;1.40;99.90;;;;;;4937721;29;20043;-76
2023/01/27 07:39:13;;;;;;;210.30;85.85;;;1.40;99.90;;;;;;4937918;29;20102;-76
2023/01/27 07:41:39;;;;;;;196.27;81.93;;;1.40;99.90;;;;;;4936824;29;20019;-75
2023/01/27 07:44:04;;;;;;;202.30;86.32;;;1.50;99.90;;;;;;4937986;29;20103;-77
2023/01/27 07:46:30;;;;;;;204.73;89.07;;;1.50;99.90;;;;;;4937722;29;20456;-75
2023/01/27 07:48:56;;;;;;;227.38;97.60;;;1.40;99.90;;;;;;4937760;29;20015;-75
2023/01/27 07:51:22;;;;;;;202.52;91.35;;;1.50;99.90;;;;;;4937489;29;20034;-76
2023/01/27 07:53:47;;;;;;;211.10;94.43;;;1.50;99.90;;;;;;4937820;29;20484;-75
2023/01/27 07:56:13;;;;;;;150.48;71.50;;;1.50;99.90;;;;;;4920481;29;20027;-76
2023/01/27 07:58:39;;;;;;;161.35;74.95;;;1.50;99.90;;;;;;4937220;29;20038;-76
2023/01/27 08:01:07;;;;;;;126.45;55.17;;;1.60;99.90;;;;;;4937699;29;20055;-75
2023/01/27 08:03:33;;;;;;;128.27;55.63;;;1.50;99.90;;;;;;4937504;29;20054;-76
2023/01/27 08:06:07;;;;;;;138.98;58.08;;;1.50;99.90;;;;;;4937048;29;20360;-76
2023/01/27 08:08:33;;;;;;;133.10;57.42;;;1.60;99.90;;;;;;4920630;29;20023;-77
2023/01/27 08:11:04;;;;;;;147.73;65.53;;;1.70;99.90;;;;;;4937087;29;20102;-76
2023/01/27 08:13:30;;;;;;;135.80;62.42;;;1.70;99.90;;;;;;4937342;29;20554;-77
2023/01/27 08:16:00;;;;;;;126.20;55.40;;;1.70;99.90;;;;;;4937071;29;20028;-75
2023/01/27 08:18:28;;;;;;;138.63;61.15;;;1.70;99.90;;;;;;4937249;29;20023;-76
2023/01/27 08:20:54;;;;;;;142.77;61.13;;;1.70;99.90;;;;;;4937123;29;20027;-75
2023/01/27 08:23:21;;;;;;;159.15;65.63;;;1.80;99.90;;;;;;4937099;29;20030;-75
2023/01/27 08:25:54;;;;;;;174.80;70.13;;;1.80;99.90;;;;;;4937226;29;20023;-75
2023/01/27 08:28:21;;;;;;;204.07;82.80;;;1.70;99.90;;;;;;4936856;29;20031;-77
2023/01/27 08:30:50;;;;;;;201.38;86.53;;;1.80;99.90;;;;;;4936719;29;20106;-77
2023/01/27 08:33:17;;;;;;;137.65;60.78;;;1.80;99.90;;;;;;4919893;29;20024;-76
2023/01/27 08:35:43;;;;;;;156.88;68.90;;;1.80;99.90;;;;;;4936896;29;20023;-75
2023/01/27 08:38:14;;;;;;;118.28;51.22;;;1.90;99.90;;;;;;4937152;29;20051;-75
2023/01/27 08:40:40;;;;;;;100.85;43.72;;;1.80;99.90;;;;;;4936833;29;20020;-75
2023/01/27 08:43:07;;;;;;;101.63;45.78;;;1.80;99.90;;;;;;4936960;29;20332;-75
2023/01/27 08:45:34;;;;;;;106.60;50.33;;;1.80;99.90;;;;;;4936602;29;20102;-75
2023/01/27 08:48:01;;;;;;;125.47;58.08;;;1.80;99.90;;;;;;4936465;29;20537;-76
2023/01/27 08:50:29;;;;;;;97.03;45.38;;;1.90;99.90;;;;;;4936903;29;20462;-77
2023/01/27 08:52:57;;;;;;;112.05;52.38;;;1.90;99.90;;;;;;4936838;29;20019;-75
2023/01/27 08:55:28;;;;;;;140.50;65.22;;;1.90;99.90;;;;;;4919764;29;20031;-75
2023/01/27 08:57:54;;;;;;;116.17;55.77;;;1.90;99.90;;;;;;4936640;29;20114;-76
2023/01/27 09:00:21;;;;;;;117.80;55.55;;;1.80;99.90;;;;;;4936355;29;20333;-78
2023/01/27 09:02:46;;;;;;;125.93;55.97;;;1.90;99.90;;;;;;4936252;29;20024;-75
2023/01/27 09:05:13;;;;;;;126.13;58.75;;;1.90;99.90;;;;;;4936683;29;20031;-74
2023/01/27 09:07:39;;;;;;;126.53;58.50;;;1.90;99.90;;;;;;4936615;29;20103;-77
2023/01/27 09:10:05;;;;;;;123.03;58.20;;;1.90;99.90;;;;;;4936438;29;20471;-75
2023/01/27 09:12:31;;;;;;;123.15;59.80;;;1.90;99.90;;;;;;4919331;29;20035;-75
2023/01/27 09:14:57;;;;;;;104.90;47.92;;;2.00;99.90;;;;;;4936661;29;20511;-74
2023/01/27 09:17:24;;;;;;;114.68;47.00;;;1.90;99.90;;;;;;4936636;29;20123;-76
2023/01/27 09:19:50;;;;;;;100.72;43.50;;;1.90;99.90;;;;;;4936550;29;20027;-75
2023/01/27 09:22:16;;;;;;;122.72;57.70;;;1.80;99.90;;;;;;4936599;29;20027;-76
2023/01/27 09:24:42;;;;;;;106.80;52.58;;;1.80;99.90;;;;;;4936366;29;20028;-74
2023/01/27 09:27:07;;;;;;;98.95;45.65;;;1.80;99.90;;;;;;4936467;29;20066;-74
2023/01/27 09:29:33;;;;;;;87.22;38.58;;;1.80;99.90;;;;;;4918999;29;20367;-76
2023/01/27 09:31:59;;;;;;;96.25;42.05;;;1.60;99.90;;;;;;4936134;29;20051;-75
2023/01/27 09:34:24;;;;;;;103.88;45.42;;;1.70;99.90;;;;;;4936366;29;20079;-76
2023/01/27 09:36:56;;;;;;;81.80;37.13;;;1.70;99.90;;;;;;4935829;29;20130;-75
2023/01/27 09:39:23;;;;;;;75.22;33.72;;;1.70;99.90;;;;;;4936207;29;20043;-76
2023/01/27 09:41:57;;;;;;;79.28;36.80;;;1.60;99.90;;;;;;4936026;29;20039;-76
2023/01/27 09:44:55;;;;;;;89.05;43.58;;;1.70;99.90;;;;;;4918767;29;20024;-75
2023/01/27 09:47:42;;;;;;;83.65;40.22;;;1.70;99.90;;;;;;4897260;29;20058;-76
2023/01/27 09:50:18;;;;;;;96.28;42.47;;;1.70;99.90;;;;;;4936137;29;20024;-75
2023/01/27 09:53:12;;;;;;;106.97;50.55;;;1.70;99.90;;;;;;4936079;29;20027;-75
2023/01/27 09:55:50;;;;;;;98.18;44.17;;;1.70;99.90;;;;;;4919201;29;20023;-75
2023/01/27 09:58:36;;;;;;;110.47;50.60;;;1.60;99.90;;;;;;4936078;29;20035;-77
2023/01/27 10:01:35;;;;;;;91.38;40.30;;;1.70;99.90;;;;;;4936296;29;20039;-76
2023/01/27 10:04:45;;;;;;;91.60;40.72;;;1.70;99.90;;;;;;4935961;29;20028;-74
2023/01/27 10:07:32;;;;;;;140.68;63.47;;;1.70;99.90;;;;;;4939529;29;20055;-74
2023/01/27 10:10:13;;;;;;;128.98;59.97;;;1.80;99.90;;;;;;4939651;29;20034;-77
2023/01/27 10:12:48;;;;;;;139.90;68.40;;;1.80;99.90;;;;;;4939479;29;20027;-75
2023/01/27 10:15:30;;;;;;;142.63;72.05;;;1.80;99.90;;;;;;4939842;29;20080;-77
2023/01/27 10:17:58;;;;;;;125.65;60.35;;;1.80;99.90;;;;;;4939381;29;20023;-76
2023/01/27 10:20:41;;;;;;;102.15;53.22;;;1.80;99.90;;;;;;4939297;29;20102;-78
2023/01/27 10:23:33;;;;;;;88.63;43.22;;;1.90;99.90;;;;;;4939476;29;20034;-76
2023/01/27 10:26:17;;;;;;;67.47;36.33;;;2.00;99.90;;;;;;4922243;29;20028;-75
2023/01/27 10:28:49;;;;;;;80.07;40.95;;;1.80;99.90;;;;;;4939557;29;20082;-76
2023/01/27 10:31:31;;;;;;;82.70;42.83;;;1.90;99.90;;;;;;4939201;29;20024;-74
2023/01/27 10:34:03;;;;;;;71.65;36.38;;;1.90;99.90;;;;;;4921995;29;20413;-75
2023/01/27 10:37:04;;;;;;;72.28;36.85;;;1.80;99.90;;;;;;4921734;29;20027;-74
2023/01/27 10:40:10;;;;;;;92.60;45.00;;;1.90;99.90;;;;;;4861688;29;20033;-77
2023/01/27 10:43:09;;;;;;;82.80;40.00;;;1.90;99.90;;;;;;4846399;29;20116;-75
2023/01/27 10:45:50;;;;;;;81.97;42.58;;;1.80;99.90;;;;;;4851133;29;20453;-75
2023/01/27 10:48:42;;;;;;;85.45;40.92;;;1.80;99.90;;;;;;4861411;29;20067;-75
2023/01/27 10:51:19;;;;;;;80.20;42.00;;;1.90;99.90;;;;;;4861293;29;20040;-74
2023/01/27 10:53:51;;;;;;;93.28;44.55;;;1.90;99.90;;;;;;4861328;29;20378;-76
2023/01/27 10:56:26;;;;;;;99.15;49.60;;;1.80;99.90;;;;;;4861568;29;20048;-75
2023/01/27 10:59:03;;;;;;;84.63;43.17;;;1.90;99.90;;;;;;4861484;29;20037;-74
2023/01/27 11:01:38;;;;;;;89.32;46.67;;;1.90;99.90;;;;;;4861509;29;20036;-73
2023/01/27 11:04:15;;;;;;;86.95;42.45;;;2.00;99.90;;;;;;4861692;29;20038;-75
2023/01/27 11:06:42;;;;;;;94.55;45.20;;;1.90;99.90;;;;;;4861278;29;20046;-74
2023/01/27 11:09:22;;;;;;;82.82;39.78;;;1.90;99.90;;;;;;4861069;29;20108;-75
2023/01/27 11:11:48;;;;;;;94.53;44.35;;;1.90;99.90;;;;;;4861201;29;20076;-77
2023/01/27 11:14:21;;;;;;;110.93;49.80;;;1.90;99.90;;;;;;4842111;29;20170;-75
2023/01/27 11:16:57;;;;;;;92.78;44.53;;;1.90;99.90;;;;;;4913619;29;20044;-75
2023/01/27 11:19:53;;;;;;;99.97;49.70;;;1.90;99.90;;;;;;4921586;29;20047;-76
2023/01/27 11:22:23;;;;;;;104.50;55.05;;;2.00;99.90;;;;;;4938012;29;20071;-76
2023/01/27 11:24:58;;;;;;;104.65;49.97;;;2.00;99.90;;;;;;4938420;29;20139;-75
2023/01/27 11:27:35;;;;;;;93.15;47.47;;;2.10;99.90;;;;;;4938011;29;20026;-76
2023/01/27 11:30:33;;;;;;;82.47;42.15;;;2.10;99.90;;;;;;4937770;29;20126;-77
2023/01/27 11:33:17;;;;;;;79.43;38.95;;;2.10;99.90;;;;;;4901445;29;20040;-76
2023/01/27 11:35:43;;;;;;;93.63;41.42;;;2.00;99.90;;;;;;4937787;29;20028;-76
2023/01/27 11:38:17;;;;;;;170.27;74.03;;;2.10;99.90;;;;;;4920910;29;20055;-77
2023/01/27 11:40:45;;;;;;;178.90;87.28;;;2.10;99.90;;;;;;4938104;29;20471;-75
2023/01/27 11:43:17;;;;;;;108.13;52.55;;;2.20;99.90;;;;;;4920718;29;20034;-76
2023/01/27 11:45:45;;;;;;;78.97;39.83;;;2.20;99.90;;;;;;4938091;29;20046;-75
2023/01/27 11:48:14;;;;;;;89.97;44.63;;;2.00;99.90;;;;;;4937820;29;20034;-76
2023/01/27 11:50:41;;;;;;;91.88;44.03;;;2.10;99.90;;;;;;4937809;29;20020;-77
2023/01/27 11:53:17;;;;;;;72.63;36.00;;;2.00;99.90;;;;;;4920501;29;20023;-76
2023/01/27 11:55:49;;;;;;;83.45;40.83;;;2.00;99.90;;;;;;4947671;29;20090;-74
2023/01/27 11:58:23;;;;;;;97.45;48.40;;;2.00;99.90;;;;;;4954942;29;20374;-73
2023/01/27 12:01:16;;;;;;;94.25;49.08;;;2.10;99.90;;;;;;4955502;29;20106;-74
2023/01/27 12:04:11;;;;;;;106.07;52.63;;;2.20;99.90;;;;;;4947494;29;20534;-75
2023/01/27 12:06:46;;;;;;;112.18;53.50;;;2.20;99.90;;;;;;4956536;29;20031;-73
2023/01/27 12:09:32;;;;;;;109.93;53.63;;;2.10;99.90;;;;;;4948768;29;20026;-72
2023/01/27 12:12:13;;;;;;;132.23;60.78;;;2.10;99.90;;;;;;4953432;29;20031;-73
2023/01/27 12:14:46;;;;;;;110.70;51.10;;;2.10;99.90;;;;;;4952355;29;20118;-75
2023/01/27 12:17:21;;;;;;;129.88;60.95;;;2.00;99.90;;;;;;4954876;29;20070;-74
2023/01/27 12:19:47;;;;;;;120.78;53.72;;;2.00;99.90;;;;;;4956365;29;20100;-73
2023/01/27 12:22:35;;;;;;;109.35;50.28;;;1.90;99.90;;;;;;4950560;29;20019;-73
2023/01/27 12:25:05;;;;;;;114.50;51.70;;;1.90;99.90;;;;;;4949022;29;20501;-73
2023/01/27 12:27:40;;;;;;;102.10;46.08;;;1.90;99.90;;;;;;4955484;28;20078;-73
2023/01/27 12:30:16;;;;;;;108.28;49.00;;;1.90;99.90;;;;;;4948569;29;20027;-73
2023/01/27 12:32:46;;;;;;;105.50;48.88;;;1.90;99.90;;;;;;4955279;29;20492;-73
2023/01/27 12:35:32;;;;;;;96.18;45.65;;;1.90;99.90;;;;;;4955691;29;20019;-72
2023/01/27 12:38:15;;;;;;;116.65;53.75;;;1.90;99.90;;;;;;4951710;28;20048;-73
2023/01/27 12:40:43;;;;;;;102.15;48.53;;;1.90;99.90;;;;;;4952691;29;20039;-75
2023/01/27 12:43:17;;;;;;;111.78;51.38;;;1.90;99.90;;;;;;4955673;29;20019;-74
2023/01/27 12:45:44;;;;;;;114.20;51.88;;;1.80;99.90;;;;;;4955503;29;20066;-74
2023/01/27 12:48:12;;;;;;;102.60;47.60;;;1.90;99.90;;;;;;4956143;29;20023;-74
2023/01/27 12:50:41;;;;;;;121.90;50.13;;;1.80;99.90;;;;;;4955841;29;20116;-74
2023/01/27 12:53:16;;;;;;;118.65;52.25;;;1.80;99.90;;;;;;4955585;29;20074;-74
2023/01/27 12:55:57;;;;;;;163.98;66.88;;;1.80;99.90;;;;;;4955457;29;20458;-75
2023/01/27 12:58:44;;;;;;;139.05;60.97;;;1.80;99.90;;;;;;4938359;29;20093;-74
2023/01/27 13:01:37;;;;;;;124.25;56.42;;;1.70;99.90;;;;;;4955482;29;20034;-74
2023/01/27 13:04:02;;;;;;;107.57;51.33;;;1.70;99.90;;;;;;4955876;29;20094;-73
2023/01/27 13:06:59;;;;;;;148.93;63.33;;;1.60;99.90;;;;;;4955182;29;20055;-74
2023/01/27 13:09:52;;;;;;;116.60;54.38;;;1.60;99.90;;;;;;4954759;29;20043;-75
2023/01/27 13:12:51;;;;;;;101.45;45.90;;;1.50;99.90;;;;;;4949004;29;20370;-73
2023/01/27 13:15:23;;;;;;;233.75;105.32;;;1.50;99.90;;;;;;4930480;29;20039;-74
2023/01/27 13:18:01;;;;;;;195.00;90.30;;;1.50;99.90;;;;;;4955196;29;20038;-73
2023/01/27 13:20:39;;;;;;;149.95;69.13;;;1.60;99.90;;;;;;4955077;29;20042;-73
2023/01/27 13:23:33;;;;;;;150.07;74.95;;;1.60;99.90;;;;;;4952601;29;20033;-77
2023/01/27 13:26:08;;;;;;;108.10;50.75;;;1.60;99.90;;;;;;4944621;29;20039;-73